sensor_id;sensor_type;location;lat;lon;timestamp;temperature;humidity
46217;DHT22;47258;59.424;13.482;2023-08-06T08:11:56;17.40;99.90
46217;DHT22;47258;59.424;13.482;2023-08-06T08:14:27;17.40;99.90
46217;DHT22;47258;59.424;13.482;2023-08-06T08:17:01;17.50;99.90
46217;DHT22;47258;59.424;13.482;2023-08-06T08:19:30;17.50;99.90
46217;DHT22;47258;59.424;13.482;2023-08-06T08:21:58;17.50;99.90
46217;DHT22;47258;59.424;13.482;2023-08-06T08:24:27;17.60;99.90
46217;DHT22;47258;59.424;13.482;2023-08-06T08:26:57;17.70;99.90
46217;DHT22;47258;59.424;13.482;2023-08-06T08:29:27;17.70;99.90
46217;DHT22;47258;59.424;13.482;2023-08-06T08:31:57;17.70;99.90
46217;DHT22;47258;59.424;13.482;2023-08-06T08:34:25;17.70;99.90
46217;DHT22;47258;59.424;13.482;2023-08-06T08:36:54;17.70;99.90
46217;DHT22;47258;59.424;13.482;2023-08-06T08:39:26;17.80;99.90
46217;DHT22;47258;59.424;13.482;2023-08-06T08:41:54;18.00;99.90
46217;DHT22;47258;59.424;13.482;2023-08-06T08:44:23;18.00;99.90
46217;DHT22;47258;59.424;13.482;2023-08-06T08:46:56;18.10;99.90
46217;DHT22;47258;59.424;13.482;2023-08-06T12:10:21;18.50;99.90
46217;DHT22;47258;59.424;13.482;2023-08-06T12:12:51;20.30;99.90
46217;DHT22;47258;59.424;13.482;2023-08-06T12:15:18;20.20;99.90
46217;DHT22;47258;59.424;13.482;2023-08-06T12:17:46;20.10;99.90
46217;DHT22;47258;59.424;13.482;2023-08-06T12:20:14;20.10;99.90
46217;DHT22;47258;59.424;13.482;2023-08-06T12:22:42;20.10;99.90
46217;DHT22;47258;59.424;13.482;2023-08-06T12:25:12;20.00;99.90
46217;DHT22;47258;59.424;13.482;2023-08-06T12:27:41;20.00;99.90
46217;DHT22;47258;59.424;13.482;2023-08-06T12:30:12;20.00;99.90
46217;DHT22;47258;59.424;13.482;2023-08-06T12:32:40;20.00;99.90
46217;DHT22;47258;59.424;13.482;2023-08-06T12:35:10;20.00;99.90
46217;DHT22;47258;59.424;13.482;2023-08-06T12:37:40;20.00;99.90
46217;DHT22;47258;59.424;13.482;2023-08-06T12:40:11;20.00;99.90
46217;DHT22;47258;59.424;13.482;2023-08-06T12:42:39;20.10;99.90
46217;DHT22;47258;59.424;13.482;2023-08-06T12:45:10;20.20;99.90
46217;DHT22;47258;59.424;13.482;2023-08-06T12:47:38;20.20;99.90
46217;DHT22;47258;59.424;13.482;2023-08-06T12:50:06;20.20;99.90
46217;DHT22;47258;59.424;13.482;2023-08-06T12:52:34;20.30;99.90
46217;DHT22;47258;59.424;13.482;2023-08-06T12:55:03;20.30;99.90
46217;DHT22;47258;59.424;13.482;2023-08-06T12:57:30;20.30;99.90
46217;DHT22;47258;59.424;13.482;2023-08-06T12:59:59;20.30;99.90
46217;DHT22;47258;59.424;13.482;2023-08-06T13:02:31;20.30;99.90
46217;DHT22;47258;59.424;13.482;2023-08-06T13:05:00;20.20;99.90
46217;DHT22;47258;59.424;13.482;2023-08-06T13:07:31;20.20;99.90
46217;DHT22;47258;59.424;13.482;2023-08-06T13:09:59;20.20;99.90
46217;DHT22;47258;59.424;13.482;2023-08-06T13:12:28;20.10;99.90
46217;DHT22;47258;59.424;13.482;2023-08-06T13:14:57;20.10;99.90
46217;DHT22;47258;59.424;13.482;2023-08-06T13:17:25;20.00;99.90
46217;DHT22;47258;59.424;13.482;2023-08-06T13:19:57;19.90;99.90
46217;DHT22;47258;59.424;13.482;2023-08-06T13:22:27;19.90;99.90
46217;DHT22;47258;59.424;13.482;2023-08-06T13:24:54;19.80;99.90
46217;DHT22;47258;59.424;13.482;2023-08-06T13:27:23;19.90;99.90
46217;DHT22;47258;59.424;13.482;2023-08-06T13:29:51;19.80;99.90
46217;DHT22;47258;59.424;13.482;2023-08-06T13:32:22;19.80;99.90
46217;DHT22;47258;59.424;13.482;2023-08-06T13:34:50;19.80;99.90
46217;DHT22;47258;59.424;13.482;2023-08-06T13:37:20;19.90;99.90
46217;DHT22;47258;59.424;13.482;2023-08-06T13:39:49;19.90;99.90
46217;DHT22;47258;59.424;13.482;2023-08-06T13:42:19;20.00;99.90
46217;DHT22;47258;59.424;13.482;2023-08-06T13:44:47;20.00;99.90
46217;DHT22;47258;59.424;13.482;2023-08-06T13:47:16;20.00;99.90
46217;DHT22;47258;59.424;13.482;2023-08-06T13:49:44;20.00;99.90
46217;DHT22;47258;59.424;13.482;2023-08-06T13:52:15;20.00;99.90
46217;DHT22;47258;59.424;13.482;2023-08-06T13:54:48;20.00;99.90
46217;DHT22;47258;59.424;13.482;2023-08-06T13:57:18;20.00;99.90
46217;DHT22;47258;59.424;13.482;2023-08-06T13:59:46;20.00;99.90
46217;DHT22;47258;59.424;13.482;2023-08-06T14:02:15;20.00;99.90
46217;DHT22;47258;59.424;13.482;2023-08-06T14:04:43;20.00;99.90
46217;DHT22;47258;59.424;13.482;2023-08-06T14:07:13;20.00;99.90
46217;DHT22;47258;59.424;13.482;2023-08-06T14:09:41;20.00;99.90
46217;DHT22;47258;59.424;13.482;2023-08-06T14:12:17;19.90;99.90
46217;DHT22;47258;59.424;13.482;2023-08-06T14:14:46;19.90;99.90
46217;DHT22;47258;59.424;13.482;2023-08-06T14:17:14;19.80;99.90
46217;DHT22;47258;59.424;13.482;2023-08-06T14:19:42;19.90;99.90
46217;DHT22;47258;59.424;13.482;2023-08-06T14:22:10;19.90;99.90
46217;DHT22;47258;59.424;13.482;2023-08-06T14:24:38;19.70;99.90
46217;DHT22;47258;59.424;13.482;2023-08-06T14:27:07;19.80;99.90
46217;DHT22;47258;59.424;13.482;2023-08-06T14:29:37;19.70;99.90
46217;DHT22;47258;59.424;13.482;2023-08-06T14:32:08;19.70;99.90
46217;DHT22;47258;59.424;13.482;2023-08-06T14:34:37;19.60;99.90
46217;DHT22;47258;59.424;13.482;2023-08-06T14:37:07;19.50;99.90
46217;DHT22;47258;59.424;13.482;2023-08-06T14:39:35;19.40;99.90
46217;DHT22;47258;59.424;13.482;2023-08-06T14:42:05;19.30;99.90
46217;DHT22;47258;59.424;13.482;2023-08-06T14:44:33;19.20;99.90
46217;DHT22;47258;59.424;13.482;2023-08-06T14:47:05;19.10;99.90
46217;DHT22;47258;59.424;13.482;2023-08-06T14:49:37;19.10;99.90
46217;DHT22;47258;59.424;13.482;2023-08-06T14:52:06;19.00;99.90
46217;DHT22;47258;59.424;13.482;2023-08-06T14:54:34;18.90;99.90
46217;DHT22;47258;59.424;13.482;2023-08-06T14:57:03;18.90;99.90
46217;DHT22;47258;59.424;13.482;2023-08-06T14:59:31;18.90;99.90
46217;DHT22;47258;59.424;13.482;2023-08-06T15:01:58;18.80;99.90
46217;DHT22;47258;59.424;13.482;2023-08-06T15:04:28;18.90;99.90
46217;DHT22;47258;59.424;13.482;2023-08-06T15:06:55;18.80;99.90
46217;DHT22;47258;59.424;13.482;2023-08-06T15:09:24;18.80;99.90
46217;DHT22;47258;59.424;13.482;2023-08-06T15:11:55;18.80;99.90
46217;DHT22;47258;59.424;13.482;2023-08-06T15:14:23;18.80;99.90
46217;DHT22;47258;59.424;13.482;2023-08-06T15:16:51;18.80;99.90
46217;DHT22;47258;59.424;13.482;2023-08-06T15:19:19;18.80;99.90
46217;DHT22;47258;59.424;13.482;2023-08-06T15:21:53;18.70;99.90
46217;DHT22;47258;59.424;13.482;2023-08-06T15:24:21;18.70;99.90
46217;DHT22;47258;59.424;13.482;2023-08-06T15:26:52;18.70;99.90
46217;DHT22;47258;59.424;13.482;2023-08-06T15:29:20;18.70;99.90
46217;DHT22;47258;59.424;13.482;2023-08-06T15:31:48;18.70;99.90
46217;DHT22;47258;59.424;13.482;2023-08-06T15:34:16;18.70;99.90
46217;DHT22;47258;59.424;13.482;2023-08-06T15:36:46;18.70;99.90
46217;DHT22;47258;59.424;13.482;2023-08-06T15:39:23;18.70;99.90
46217;DHT22;47258;59.424;13.482;2023-08-06T15:51:59;18.40;99.90
46217;DHT22;47258;59.424;13.482;2023-08-06T15:54:28;18.30;99.90
46217;DHT22;47258;59.424;13.482;2023-08-06T15:59:26;18.30;99.90
46217;DHT22;47258;59.424;13.482;2023-08-06T16:01:54;18.20;99.90
46217;DHT22;47258;59.424;13.482;2023-08-06T16:04:24;18.00;99.90
46217;DHT22;47258;59.424;13.482;2023-08-06T16:06:51;18.10;99.90
46217;DHT22;47258;59.424;13.482;2023-08-06T16:09:19;18.00;99.90
46217;DHT22;47258;59.424;13.482;2023-08-06T16:11:53;18.00;99.90
46217;DHT22;47258;59.424;13.482;2023-08-06T16:14:21;17.90;99.90
46217;DHT22;47258;59.424;13.482;2023-08-06T16:16:49;17.80;99.90
46217;DHT22;47258;59.424;13.482;2023-08-06T16:19:18;17.80;99.90
46217;DHT22;47258;59.424;13.482;2023-08-06T16:21:46;17.70;99.90
46217;DHT22;47258;59.424;13.482;2023-08-06T16:24:16;17.70;99.90
46217;DHT22;47258;59.424;13.482;2023-08-06T16:26:44;17.50;99.90
46217;DHT22;47258;59.424;13.482;2023-08-06T16:29:18;17.50;99.90
46217;DHT22;47258;59.424;13.482;2023-08-06T16:31:47;17.50;99.90
46217;DHT22;47258;59.424;13.482;2023-08-06T16:34:17;17.50;99.90
46217;DHT22;47258;59.424;13.482;2023-08-06T16:36:46;17.50;99.90
46217;DHT22;47258;59.424;13.482;2023-08-06T16:39:13;17.40;99.90
46217;DHT22;47258;59.424;13.482;2023-08-06T16:41:49;17.30;99.90
46217;DHT22;47258;59.424;13.482;2023-08-06T16:44:19;17.30;99.90
46217;DHT22;47258;59.424;13.482;2023-08-06T16:46:47;17.20;99.90
46217;DHT22;47258;59.424;13.482;2023-08-06T16:49:15;17.20;99.90
46217;DHT22;47258;59.424;13.482;2023-08-06T16:51:44;17.20;99.90
46217;DHT22;47258;59.424;13.482;2023-08-06T16:54:12;17.10;99.90
46217;DHT22;47258;59.424;13.482;2023-08-06T16:56:40;17.10;99.90
46217;DHT22;47258;59.424;13.482;2023-08-06T16:59:07;17.10;99.90
46217;DHT22;47258;59.424;13.482;2023-08-06T17:01:38;17.00;99.90
46217;DHT22;47258;59.424;13.482;2023-08-06T17:04:06;17.00;99.90
46217;DHT22;47258;59.424;13.482;2023-08-06T17:06:35;17.00;99.90
46217;DHT22;47258;59.424;13.482;2023-08-06T17:09:03;16.90;99.90
46217;DHT22;47258;59.424;13.482;2023-08-06T17:11:31;16.80;99.90
46217;DHT22;47258;59.424;13.482;2023-08-06T17:13:59;16.80;99.90
46217;DHT22;47258;59.424;13.482;2023-08-06T17:16:29;16.80;99.90
46217;DHT22;47258;59.424;13.482;2023-08-06T17:19:01;16.80;99.90
46217;DHT22;47258;59.424;13.482;2023-08-06T17:21:29;16.80;99.90
46217;DHT22;47258;59.424;13.482;2023-08-06T17:23:57;16.70;99.90
46217;DHT22;47258;59.424;13.482;2023-08-06T17:26:27;16.70;99.90
46217;DHT22;47258;59.424;13.482;2023-08-06T17:28:57;16.70;99.90
46217;DHT22;47258;59.424;13.482;2023-08-06T17:31:25;16.60;99.90
46217;DHT22;47258;59.424;13.482;2023-08-06T17:33:54;16.60;99.90
46217;DHT22;47258;59.424;13.482;2023-08-06T17:36:23;16.50;99.90
46217;DHT22;47258;59.424;13.482;2023-08-06T17:38:55;16.40;99.90
46217;DHT22;47258;59.424;13.482;2023-08-06T17:41:23;16.30;99.90
46217;DHT22;47258;59.424;13.482;2023-08-06T17:43:54;16.30;99.90
46217;DHT22;47258;59.424;13.482;2023-08-06T17:46:23;16.20;99.90
46217;DHT22;47258;59.424;13.482;2023-08-06T17:48:54;16.20;99.90
46217;DHT22;47258;59.424;13.482;2023-08-06T17:51:25;16.20;99.90
46217;DHT22;47258;59.424;13.482;2023-08-06T17:53:59;16.10;99.90
46217;DHT22;47258;59.424;13.482;2023-08-06T17:56:29;16.00;99.90
46217;DHT22;47258;59.424;13.482;2023-08-06T17:58:57;15.90;99.90
46217;DHT22;47258;59.424;13.482;2023-08-06T18:01:24;15.80;99.90
46217;DHT22;47258;59.424;13.482;2023-08-06T18:03:52;15.60;99.90
46217;DHT22;47258;59.424;13.482;2023-08-06T18:06:19;15.60;99.90
46217;DHT22;47258;59.424;13.482;2023-08-06T18:08:48;15.60;99.90
46217;DHT22;47258;59.424;13.482;2023-08-06T18:11:16;15.60;99.90
46217;DHT22;47258;59.424;13.482;2023-08-06T18:13:44;15.50;99.90
46217;DHT22;47258;59.424;13.482;2023-08-06T18:16:12;15.60;99.90
46217;DHT22;47258;59.424;13.482;2023-08-06T18:18:40;15.50;99.90
46217;DHT22;47258;59.424;13.482;2023-08-06T18:21:09;15.60;99.90
46217;DHT22;47258;59.424;13.482;2023-08-06T18:23:37;15.60;99.90
46217;DHT22;47258;59.424;13.482;2023-08-06T18:26:06;15.60;99.90
46217;DHT22;47258;59.424;13.482;2023-08-06T18:28:34;15.60;99.90
46217;DHT22;47258;59.424;13.482;2023-08-06T18:31:01;15.70;99.90
46217;DHT22;47258;59.424;13.482;2023-08-06T18:33:29;15.70;99.90
46217;DHT22;47258;59.424;13.482;2023-08-06T18:35:56;15.70;99.90
46217;DHT22;47258;59.424;13.482;2023-08-06T18:38:26;15.70;99.90
46217;DHT22;47258;59.424;13.482;2023-08-06T18:40:56;15.70;99.90
46217;DHT22;47258;59.424;13.482;2023-08-06T18:43:26;15.70;99.90
46217;DHT22;47258;59.424;13.482;2023-08-06T18:45:55;15.70;99.90
46217;DHT22;47258;59.424;13.482;2023-08-06T18:48:23;15.70;99.90
46217;DHT22;47258;59.424;13.482;2023-08-06T18:50:51;15.60;99.90
46217;DHT22;47258;59.424;13.482;2023-08-06T18:53:21;15.50;99.90
46217;DHT22;47258;59.424;13.482;2023-08-06T18:55:49;15.50;99.90
46217;DHT22;47258;59.424;13.482;2023-08-06T18:58:17;15.40;99.90
46217;DHT22;47258;59.424;13.482;2023-08-06T19:00:46;15.50;99.90
46217;DHT22;47258;59.424;13.482;2023-08-06T19:03:13;15.40;99.90
46217;DHT22;47258;59.424;13.482;2023-08-06T19:05:40;15.40;99.90
46217;DHT22;47258;59.424;13.482;2023-08-06T19:08:09;15.30;99.90
46217;DHT22;47258;59.424;13.482;2023-08-06T19:10:37;15.30;99.90
46217;DHT22;47258;59.424;13.482;2023-08-06T19:13:09;15.30;99.90
46217;DHT22;47258;59.424;13.482;2023-08-06T19:15:39;15.40;99.90
46217;DHT22;47258;59.424;13.482;2023-08-06T19:18:13;15.40;99.90
46217;DHT22;47258;59.424;13.482;2023-08-06T19:20:41;15.30;99.90
46217;DHT22;47258;59.424;13.482;2023-08-06T19:23:09;15.20;99.90
46217;DHT22;47258;59.424;13.482;2023-08-06T19:25:41;15.10;99.90
46217;DHT22;47258;59.424;13.482;2023-08-06T19:28:10;15.10;99.90
46217;DHT22;47258;59.424;13.482;2023-08-06T19:30:38;15.00;99.90
46217;DHT22;47258;59.424;13.482;2023-08-06T19:33:07;15.00;99.90
46217;DHT22;47258;59.424;13.482;2023-08-06T19:35:45;15.00;99.90
46217;DHT22;47258;59.424;13.482;2023-08-06T19:38:14;14.90;99.90
46217;DHT22;47258;59.424;13.482;2023-08-06T19:40:41;14.90;99.90
46217;DHT22;47258;59.424;13.482;2023-08-06T19:43:11;15.00;99.90
46217;DHT22;47258;59.424;13.482;2023-08-06T19:45:39;15.00;99.90
46217;DHT22;47258;59.424;13.482;2023-08-06T19:48:07;15.00;99.90
46217;DHT22;47258;59.424;13.482;2023-08-06T19:50:38;15.00;99.90
46217;DHT22;47258;59.424;13.482;2023-08-06T19:53:07;15.00;99.90
46217;DHT22;47258;59.424;13.482;2023-08-06T19:55:38;15.00;99.90
46217;DHT22;47258;59.424;13.482;2023-08-06T19:58:06;15.00;99.90
46217;DHT22;47258;59.424;13.482;2023-08-06T20:00:34;15.10;99.90
46217;DHT22;47258;59.424;13.482;2023-08-06T20:03:02;15.00;99.90
46217;DHT22;47258;59.424;13.482;2023-08-06T20:05:33;15.00;99.90
46217;DHT22;47258;59.424;13.482;2023-08-06T20:08:04;14.90;99.90
46217;DHT22;47258;59.424;13.482;2023-08-06T20:10:34;14.90;99.90
46217;DHT22;47258;59.424;13.482;2023-08-06T20:13:09;14.90;99.90
46217;DHT22;47258;59.424;13.482;2023-08-06T20:15:37;14.80;99.90
46217;DHT22;47258;59.424;13.482;2023-08-06T20:18:07;14.80;99.90
46217;DHT22;47258;59.424;13.482;2023-08-06T20:20:38;14.70;99.90
46217;DHT22;47258;59.424;13.482;2023-08-06T20:23:12;14.70;99.90
46217;DHT22;47258;59.424;13.482;2023-08-06T20:25:42;14.60;99.90
46217;DHT22;47258;59.424;13.482;2023-08-06T20:28:12;14.40;99.90
46217;DHT22;47258;59.424;13.482;2023-08-06T20:30:41;14.20;99.90
46217;DHT22;47258;59.424;13.482;2023-08-06T20:33:10;14.10;99.90
46217;DHT22;47258;59.424;13.482;2023-08-06T20:35:41;14.00;99.90
46217;DHT22;47258;59.424;13.482;2023-08-06T20:40:40;13.80;99.90
46217;DHT22;47258;59.424;13.482;2023-08-06T20:45:39;14.10;99.90
46217;DHT22;47258;59.424;13.482;2023-08-06T20:48:07;13.80;99.90
46217;DHT22;47258;59.424;13.482;2023-08-06T20:53:02;13.70;99.90
46217;DHT22;47258;59.424;13.482;2023-08-06T20:55:31;13.80;99.90
46217;DHT22;47258;59.424;13.482;2023-08-06T20:57:59;13.70;99.90
46217;DHT22;47258;59.424;13.482;2023-08-06T21:00:33;13.70;99.90
46217;DHT22;47258;59.424;13.482;2023-08-06T21:28:14;13.20;99.90
46217;DHT22;47258;59.424;13.482;2023-08-06T21:30:43;13.10;99.90
46217;DHT22;47258;59.424;13.482;2023-08-06T21:33:11;13.20;99.90
46217;DHT22;47258;59.424;13.482;2023-08-06T21:35:40;13.20;99.90
46217;DHT22;47258;59.424;13.482;2023-08-06T21:38:09;13.20;99.90
46217;DHT22;47258;59.424;13.482;2023-08-06T21:40:40;13.20;99.90
46217;DHT22;47258;59.424;13.482;2023-08-06T21:43:13;13.20;99.90
46217;DHT22;47258;59.424;13.482;2023-08-06T21:45:41;13.20;99.90
46217;DHT22;47258;59.424;13.482;2023-08-06T21:48:15;13.20;99.90
46217;DHT22;47258;59.424;13.482;2023-08-06T21:50:49;13.20;99.90
46217;DHT22;47258;59.424;13.482;2023-08-06T22:26:04;13.60;99.90
46217;DHT22;47258;59.424;13.482;2023-08-06T22:28:35;13.40;99.90
